createdAt,value
2023-01-02T00:02:02.302Z,2.10
2023-01-02T00:04:33.981Z,2.50
2023-01-02T00:07:01.273Z,2.40
2023-01-02T00:09:28.085Z,2.50
2023-01-02T00:12:01.000Z,2.30
2023-01-02T00:14:27.784Z,2.60
2023-01-02T00:16:54.673Z,2.50
2023-01-02T00:19:21.432Z,2.40
2023-01-02T00:21:48.247Z,2.40
2023-01-02T00:24:15.130Z,2.40
2023-01-02T00:26:41.916Z,2.10
2023-01-02T00:29:08.826Z,2.40
2023-01-02T00:31:36.226Z,2.30
2023-01-02T00:34:03.168Z,2.80
2023-01-02T00:36:30.260Z,2.30
2023-01-02T00:38:57.305Z,2.60
2023-01-02T00:41:24.163Z,2.90
2023-01-02T00:43:51.027Z,1.40
2023-01-02T00:46:18.830Z,2.00
2023-01-02T00:48:45.799Z,1.90
2023-01-02T00:51:15.590Z,2.30
2023-01-02T00:53:42.336Z,2.30
2023-01-02T00:56:09.116Z,2.50
2023-01-02T00:58:36.044Z,2.20
2023-01-02T01:01:04.317Z,2.20
2023-01-02T01:03:31.327Z,2.20
2023-01-02T01:05:58.203Z,2.40
2023-01-02T01:08:25.267Z,2.40
2023-01-02T01:10:52.184Z,2.40
2023-01-02T01:13:19.347Z,2.40
2023-01-02T01:15:46.215Z,2.60
2023-01-02T01:18:13.667Z,2.30
2023-01-02T01:20:40.751Z,2.70
2023-01-02T01:24:43.577Z,2.90
2023-01-02T01:27:10.827Z,3.00
2023-01-02T01:29:37.760Z,2.00
2023-01-02T01:32:06.444Z,2.00
2023-01-02T01:34:33.765Z,2.00
2023-01-02T01:37:00.836Z,2.30
2023-01-02T01:39:27.740Z,2.10
2023-01-02T01:41:54.735Z,2.70
2023-01-02T01:44:45.308Z,2.30
2023-01-02T01:47:50.125Z,2.30
2023-01-02T01:50:24.280Z,2.30
2023-01-02T01:52:54.046Z,2.40
2023-01-02T01:55:32.378Z,2.40
2023-01-02T01:58:00.978Z,2.40
2023-01-02T02:00:27.846Z,1.80
2023-01-02T02:02:58.488Z,2.20
2023-01-02T02:05:26.888Z,2.10
2023-01-02T02:08:08.512Z,2.20
2023-01-02T02:10:37.062Z,2.70
2023-01-02T02:13:04.317Z,2.30
2023-01-02T02:15:56.302Z,2.60
2023-01-02T02:19:00.235Z,2.50
2023-01-02T02:21:54.866Z,2.30
2023-01-02T02:24:24.656Z,2.30
2023-01-02T02:26:54.562Z,2.30
2023-01-02T02:29:46.465Z,2.60
2023-01-02T02:32:30.220Z,2.60
2023-01-02T02:35:15.142Z,2.60
2023-01-02T02:37:48.383Z,2.60
2023-01-02T02:40:33.595Z,3.10
2023-01-02T02:43:17.058Z,2.50
2023-01-02T02:45:56.025Z,1.80
2023-01-02T02:48:29.790Z,2.10
2023-01-02T02:51:03.021Z,2.40
2023-01-02T02:53:37.551Z,2.40
2023-01-02T02:56:05.619Z,2.50
2023-01-02T02:58:32.707Z,2.70
2023-01-02T03:01:07.562Z,2.60
2023-01-02T03:03:34.679Z,2.90
2023-01-02T03:06:22.515Z,2.80
2023-01-02T03:09:13.654Z,3.00
2023-01-02T03:12:04.980Z,2.50
2023-01-02T03:14:38.067Z,2.70
2023-01-02T03:17:08.154Z,2.90
2023-01-02T03:19:40.296Z,2.40
2023-01-02T03:22:19.711Z,2.10
2023-01-02T03:24:47.315Z,2.00
2023-01-02T03:27:16.005Z,2.20
2023-01-02T03:29:50.120Z,2.40
2023-01-02T03:32:22.961Z,2.90
2023-01-02T03:34:49.670Z,3.20
2023-01-02T03:37:19.556Z,2.40
2023-01-02T03:39:49.301Z,2.60
2023-01-02T03:44:47.063Z,2.40
2023-01-02T03:47:35.600Z,3.70
2023-01-02T03:50:06.961Z,2.40
2023-01-02T03:52:33.765Z,2.70
2023-01-02T03:55:00.687Z,2.80
2023-01-02T03:57:39.671Z,2.90
2023-01-02T04:00:06.795Z,2.70
2023-01-02T04:02:47.307Z,2.20
2023-01-02T04:05:21.114Z,2.10
2023-01-02T04:07:58.570Z,2.20
2023-01-02T04:10:25.991Z,2.50
2023-01-02T04:12:55.611Z,2.80
2023-01-02T04:15:23.990Z,2.80
2023-01-02T04:17:56.841Z,2.60
2023-01-02T04:20:25.181Z,2.70
2023-01-02T04:22:57.721Z,2.80
2023-01-02T04:25:26.406Z,3.80
2023-01-02T04:28:29.735Z,2.70
2023-01-02T04:31:15.516Z,2.80
2023-01-02T04:33:53.742Z,2.90
2023-01-02T04:36:20.561Z,3.40
2023-01-02T04:38:47.736Z,3.10
2023-01-02T04:41:27.125Z,1.90
2023-01-02T04:43:55.261Z,2.50
2023-01-02T04:46:23.306Z,2.40
2023-01-02T04:48:50.266Z,2.60
2023-01-02T04:51:17.132Z,2.50
2023-01-02T04:53:43.934Z,2.70
2023-01-02T04:56:10.878Z,3.00
2023-01-02T04:58:37.715Z,2.60
2023-01-02T05:01:11.694Z,3.00
2023-01-02T05:03:40.335Z,2.90
2023-01-02T05:06:07.886Z,3.30
2023-01-02T05:08:35.472Z,3.40
2023-01-02T05:11:09.693Z,3.30
2023-01-02T05:13:36.668Z,2.80
2023-01-02T05:16:04.735Z,2.90
2023-01-02T05:18:31.907Z,2.70
2023-01-02T05:21:31.730Z,2.20
2023-01-02T05:24:00.702Z,2.10
2023-01-02T05:26:27.587Z,3.00
2023-01-02T05:28:54.744Z,2.40
2023-01-02T05:31:22.200Z,2.80
2023-01-02T05:33:56.234Z,2.70
2023-01-02T05:36:23.921Z,2.70
2023-01-02T05:38:51.083Z,2.70
2023-01-02T05:41:18.070Z,3.40
2023-01-02T05:43:45.096Z,2.90
2023-01-02T05:46:12.713Z,2.80
2023-01-02T05:48:40.075Z,2.90
2023-01-02T05:51:07.639Z,3.00
2023-01-02T05:53:34.659Z,3.10
2023-01-02T05:56:05.556Z,2.90
2023-01-02T05:58:35.715Z,2.70
2023-01-02T06:01:13.965Z,2.50
2023-01-02T06:03:44.664Z,3.30
2023-01-02T06:06:11.502Z,3.30
2023-01-02T06:08:39.073Z,2.20
2023-01-02T06:11:06.136Z,2.30
2023-01-02T06:13:35.878Z,2.70
2023-01-02T06:16:03.730Z,3.00
2023-01-02T06:18:31.899Z,3.10
2023-01-02T06:20:59.801Z,3.00
2023-01-02T06:23:26.746Z,3.20
2023-01-02T06:25:55.696Z,3.60
2023-01-02T06:28:23.115Z,3.00
2023-01-02T06:30:49.819Z,3.20
2023-01-02T06:33:17.351Z,3.00
2023-01-02T06:35:44.702Z,3.10
2023-01-02T06:38:11.805Z,3.30
2023-01-02T06:40:38.932Z,3.50
2023-01-02T06:43:05.923Z,3.00
2023-01-02T06:45:32.875Z,2.30
2023-01-02T06:48:00.832Z,2.00
2023-01-02T06:50:34.689Z,2.40
2023-01-02T06:53:02.428Z,2.40
2023-01-02T06:55:29.314Z,2.60
2023-01-02T06:57:56.081Z,2.70
2023-01-02T07:00:22.968Z,2.70
2023-01-02T07:02:49.909Z,2.80
2023-01-02T07:05:22.704Z,3.00
2023-01-02T07:07:51.395Z,3.20
2023-01-02T07:10:19.208Z,3.30
2023-01-02T07:12:46.033Z,3.00
2023-01-02T07:15:12.969Z,2.20
2023-01-02T07:17:40.065Z,2.80
2023-01-02T07:20:07.566Z,2.50
2023-01-02T07:22:34.632Z,2.90
2023-01-02T07:25:03.200Z,2.90
2023-01-02T07:27:31.307Z,3.10
2023-01-02T07:29:58.264Z,3.20
2023-01-02T07:32:27.548Z,3.40
2023-01-02T07:34:54.796Z,3.80
2023-01-02T07:37:21.770Z,3.30
2023-01-02T07:39:50.750Z,3.20
2023-01-02T07:42:17.524Z,2.40
2023-01-02T07:44:44.675Z,2.90
2023-01-02T07:47:13.351Z,3.60
2023-01-02T07:49:40.409Z,3.80
2023-01-02T07:52:11.335Z,3.30
2023-01-02T07:54:38.073Z,3.00
2023-01-02T07:57:04.918Z,3.00
2023-01-02T07:59:32.174Z,3.10
2023-01-02T08:01:58.989Z,3.90
2023-01-02T08:04:26.213Z,3.70
2023-01-02T08:06:53.140Z,3.60
2023-01-02T08:09:19.928Z,3.90
2023-01-02T08:11:46.925Z,2.40
2023-01-02T08:14:18.335Z,2.90
2023-01-02T08:16:49.015Z,3.20
2023-01-02T08:19:16.184Z,3.80
2023-01-02T08:21:42.919Z,3.30
2023-01-02T08:24:09.738Z,3.20
2023-01-02T08:26:36.884Z,3.70
2023-01-02T08:29:04.224Z,3.50
2023-01-02T08:31:30.992Z,3.40
2023-01-02T08:33:57.947Z,3.50
2023-01-02T08:36:25.296Z,3.50
2023-01-02T08:38:52.120Z,4.20
2023-01-02T08:41:36.295Z,3.60
2023-01-02T08:44:03.425Z,3.30
2023-01-02T08:46:38.545Z,3.20
2023-01-02T08:49:09.513Z,3.10
2023-01-02T08:51:36.489Z,2.80
2023-01-02T08:54:03.417Z,3.30
2023-01-02T08:56:31.753Z,3.50
2023-01-02T08:59:01.010Z,3.60
2023-01-02T09:01:28.545Z,4.20
2023-01-02T09:03:55.568Z,3.70
2023-01-02T09:06:23.751Z,3.80
2023-01-02T09:08:52.820Z,3.60
2023-01-02T09:11:22.684Z,3.80
2023-01-02T09:13:51.541Z,4.40
2023-01-02T09:16:18.849Z,3.50
2023-01-02T09:18:45.718Z,3.80
2023-01-02T09:21:12.710Z,3.50
2023-01-02T09:23:39.467Z,3.80
2023-01-02T09:26:07.005Z,3.60
2023-01-02T09:28:35.781Z,4.30
2023-01-02T09:31:13.303Z,3.60
2023-01-02T09:33:45.242Z,3.80
2023-01-02T09:36:13.103Z,4.40
2023-01-02T09:38:40.240Z,4.00
2023-01-02T09:41:19.252Z,3.70
2023-01-02T09:43:48.445Z,4.20
2023-01-02T09:46:28.647Z,3.60
2023-01-02T09:48:55.593Z,3.50
2023-01-02T09:51:22.439Z,3.90
2023-01-02T09:53:49.264Z,3.70
2023-01-02T09:56:34.108Z,4.10
2023-01-02T09:59:07.500Z,3.60
2023-01-02T10:01:36.456Z,4.10
2023-01-02T10:04:38.598Z,4.00
2023-01-02T10:07:08.434Z,3.30
2023-01-02T10:09:45.039Z,4.30
2023-01-02T10:12:21.068Z,3.90
2023-01-02T10:14:55.324Z,4.10
2023-01-02T10:17:22.524Z,4.00
2023-01-02T10:19:58.205Z,4.00
2023-01-02T10:22:39.662Z,3.90
2023-01-02T10:25:18.781Z,3.60
2023-01-02T10:27:57.811Z,3.90
2023-01-02T10:30:26.551Z,3.60
2023-01-02T10:33:00.413Z,3.70
2023-01-02T10:35:50.899Z,4.20
2023-01-02T10:38:18.645Z,3.90
2023-01-02T10:40:47.032Z,4.10
2023-01-02T10:43:14.586Z,4.00
2023-01-02T10:45:42.568Z,4.20
2023-01-02T10:48:12.771Z,4.20
2023-01-02T10:50:46.679Z,4.10
2023-01-02T10:53:33.919Z,4.60
2023-01-02T10:56:03.079Z,4.40
2023-01-02T10:58:30.298Z,4.40
2023-01-02T11:01:08.271Z,4.50
2023-01-02T11:03:36.708Z,3.90
2023-01-02T11:06:25.664Z,4.20
2023-01-02T11:09:05.088Z,3.90
2023-01-02T11:11:32.214Z,4.50
2023-01-02T11:14:07.401Z,4.40
2023-01-02T11:16:38.903Z,3.80
2023-01-02T11:19:07.603Z,4.00
2023-01-02T11:21:36.414Z,4.80
2023-01-02T11:24:19.812Z,4.10
2023-01-02T11:26:48.281Z,3.70
2023-01-02T11:29:29.787Z,4.20
2023-01-02T11:32:00.206Z,4.00
2023-01-02T11:34:36.260Z,4.40
2023-01-02T11:37:05.842Z,4.10
2023-01-02T11:39:34.039Z,4.20
2023-01-02T11:42:42.851Z,4.40
2023-01-02T11:45:17.090Z,5.60
2023-01-02T11:48:04.776Z,4.80
2023-01-02T11:50:34.564Z,4.70
2023-01-02T11:53:22.448Z,4.00
2023-01-02T11:55:59.644Z,4.10
2023-01-02T11:58:31.274Z,4.10
2023-01-02T12:01:19.685Z,4.60
2023-01-02T12:03:46.648Z,4.10
2023-01-02T12:06:24.674Z,4.30
2023-01-02T12:09:13.737Z,3.90
2023-01-02T12:12:08.772Z,4.10
2023-01-02T12:15:00.133Z,3.80
2023-01-02T12:17:41.746Z,4.30
2023-01-02T12:20:27.075Z,3.80
2023-01-02T12:23:12.669Z,4.60
2023-01-02T12:25:42.278Z,4.40
2023-01-02T12:28:24.364Z,4.00
2023-01-02T12:31:26.779Z,3.90
2023-01-02T12:34:20.177Z,3.40
2023-01-02T12:36:49.127Z,4.00
2023-01-02T12:39:25.287Z,4.20
2023-01-02T12:42:22.942Z,3.90
2023-01-02T12:44:58.851Z,4.10
2023-01-02T12:48:08.180Z,4.10
2023-01-02T12:50:49.169Z,4.20
2023-01-02T12:53:36.854Z,4.00
2023-01-02T12:56:42.475Z,4.20
2023-01-02T12:59:28.177Z,3.90
2023-01-02T13:02:32.276Z,3.80
2023-01-02T13:05:02.815Z,3.90
2023-01-02T13:07:37.584Z,4.00
2023-01-02T13:10:04.951Z,7.60
2023-01-02T13:12:33.015Z,11.30
2023-01-02T13:15:28.142Z,8.80
2023-01-02T13:18:31.181Z,7.40
2023-01-02T13:21:06.694Z,7.00
2023-01-02T13:23:37.168Z,5.40
2023-01-02T13:26:09.943Z,6.40
2023-01-02T13:28:53.141Z,9.30
2023-01-02T13:31:45.900Z,23.90
2023-01-02T13:34:09.287Z,24.10
2023-01-02T13:36:42.606Z,10.40
2023-01-02T13:39:42.056Z,20.60
2023-01-02T13:42:38.729Z,9.30
2023-01-02T13:45:37.529Z,12.80
2023-01-02T13:48:18.072Z,13.30
2023-01-02T13:50:44.831Z,9.80
2023-01-02T13:53:11.823Z,9.20
2023-01-02T13:55:41.877Z,10.70
2023-01-02T13:58:18.252Z,8.10
2023-01-02T14:00:54.337Z,8.10
2023-01-02T14:03:22.864Z,9.60
2023-01-02T14:06:00.390Z,7.80
2023-01-02T14:08:27.320Z,7.40
2023-01-02T14:10:59.401Z,7.10
2023-01-02T14:13:49.877Z,6.20
2023-01-02T14:16:22.738Z,7.60
2023-01-02T14:19:14.778Z,7.90
2023-01-02T14:21:46.903Z,8.00
2023-01-02T14:24:29.819Z,10.20
2023-01-02T14:27:00.025Z,12.50
2023-01-02T14:29:27.128Z,15.00
2023-01-02T14:32:05.655Z,14.30
2023-01-02T14:34:32.929Z,10.50
2023-01-02T14:36:59.777Z,10.30
2023-01-02T14:39:31.038Z,10.90
2023-01-02T14:42:24.757Z,15.80
2023-01-02T14:44:57.667Z,9.70
2023-01-02T14:47:37.386Z,10.40
2023-01-02T14:50:05.750Z,10.50
2023-01-02T14:52:35.310Z,9.80
2023-01-02T14:55:20.479Z,11.20
2023-01-02T14:57:48.993Z,10.80
2023-01-02T15:00:22.942Z,11.40
2023-01-02T15:02:54.014Z,12.40
2023-01-02T15:05:28.062Z,13.50
2023-01-02T15:07:55.375Z,16.90
2023-01-02T15:10:23.156Z,16.20
2023-01-02T15:13:05.173Z,18.90
2023-01-02T15:15:45.868Z,14.80
2023-01-02T15:18:32.327Z,17.10
2023-01-02T15:21:10.247Z,12.10
2023-01-02T15:23:37.842Z,18.50
2023-01-02T15:26:31.760Z,17.10
2023-01-02T15:28:59.958Z,19.80
2023-01-02T15:33:58.379Z,22.30
2023-01-02T15:36:32.998Z,17.60
2023-01-02T15:39:05.339Z,42.70
2023-01-02T15:41:32.262Z,29.60
2023-01-02T15:44:18.285Z,28.00
2023-01-02T15:46:45.250Z,22.40
2023-01-02T15:49:13.292Z,23.50
2023-01-02T15:51:41.964Z,21.20
2023-01-02T15:54:12.950Z,16.00
2023-01-02T15:56:40.229Z,17.70
2023-01-02T15:59:30.247Z,11.60
2023-01-02T16:01:57.313Z,9.60
2023-01-02T16:04:32.177Z,12.20
2023-01-02T16:07:01.390Z,9.20
2023-01-02T16:09:29.437Z,8.10
2023-01-02T16:11:57.984Z,7.40
2023-01-02T16:14:43.061Z,8.80
2023-01-02T16:17:29.344Z,9.70
2023-01-02T16:19:59.810Z,10.10
2023-01-02T16:22:36.074Z,11.10
2023-01-02T16:25:07.120Z,8.10
2023-01-02T16:27:41.044Z,5.80
2023-01-02T16:30:39.169Z,6.70
2023-01-02T16:33:27.165Z,6.00
2023-01-02T16:36:00.643Z,6.70
2023-01-02T16:38:30.301Z,7.10
2023-01-02T16:41:03.413Z,7.90
2023-01-02T16:43:33.447Z,6.00
2023-01-02T16:46:03.641Z,5.60
2023-01-02T16:48:30.698Z,8.20
2023-01-02T16:50:58.128Z,8.00
2023-01-02T16:53:29.945Z,8.30
2023-01-02T16:55:56.826Z,8.40
2023-01-02T16:58:25.449Z,7.80
2023-01-02T17:00:54.511Z,5.60
2023-01-02T17:03:23.775Z,5.80
2023-01-02T17:06:04.497Z,5.00
2023-01-02T17:08:34.689Z,4.90
2023-01-02T17:11:18.309Z,4.90
2023-01-02T17:13:45.747Z,4.70
2023-01-02T17:16:12.831Z,5.30
2023-01-02T17:18:40.694Z,5.10
2023-01-02T17:21:07.659Z,5.90
2023-01-02T17:23:34.389Z,5.60
2023-01-02T17:26:02.114Z,4.60
2023-01-02T17:28:30.431Z,6.60
2023-01-02T17:30:57.304Z,5.30
2023-01-02T17:33:24.719Z,4.40
2023-01-02T17:35:51.782Z,4.70
2023-01-02T17:38:18.636Z,4.60
2023-01-02T17:40:45.517Z,5.20
2023-01-02T17:43:12.234Z,6.20
2023-01-02T17:45:44.348Z,9.10
2023-01-02T17:48:15.177Z,7.90
2023-01-02T17:50:47.629Z,11.00
2023-01-02T17:53:14.443Z,13.10
2023-01-02T17:55:48.119Z,21.30
2023-01-02T17:58:15.012Z,21.20
2023-01-02T18:00:43.737Z,19.00
2023-01-02T18:05:37.946Z,12.80
2023-01-02T18:08:05.183Z,9.30
2023-01-02T18:10:36.050Z,12.90
2023-01-02T18:13:03.565Z,14.00
2023-01-02T18:15:31.702Z,12.00
2023-01-02T18:18:01.715Z,10.80
2023-01-02T18:20:29.030Z,9.10
2023-01-02T18:22:58.232Z,9.60
2023-01-02T18:25:27.399Z,9.40
2023-01-02T18:28:03.053Z,8.40
2023-01-02T18:30:30.378Z,7.60
2023-01-02T18:33:11.225Z,6.90
2023-01-02T18:35:56.922Z,8.10
2023-01-02T18:38:38.068Z,5.70
2023-01-02T18:41:18.767Z,5.30
2023-01-02T18:43:54.251Z,6.20
2023-01-02T18:46:23.440Z,7.00
2023-01-02T18:51:19.991Z,6.40
2023-01-02T18:53:52.178Z,7.10
2023-01-02T18:56:31.084Z,6.60
2023-01-02T18:59:23.316Z,6.80
2023-01-02T19:01:51.685Z,7.40
2023-01-02T19:04:28.307Z,7.30
2023-01-02T19:06:57.497Z,10.00
2023-01-02T19:09:30.693Z,7.30
2023-01-02T19:12:41.902Z,4.50
2023-01-02T19:15:46.311Z,5.50
2023-01-02T19:18:13.332Z,7.40
2023-01-02T19:20:43.639Z,6.80
2023-01-02T19:23:25.440Z,7.00
2023-01-02T19:25:54.866Z,7.10
2023-01-02T19:28:24.484Z,7.50
2023-01-02T19:30:56.648Z,7.30
2023-01-02T19:33:32.682Z,6.70
2023-01-02T19:36:01.606Z,6.80
2023-01-02T19:38:29.971Z,6.80
2023-01-02T19:40:58.851Z,6.20
2023-01-02T19:43:26.123Z,6.30
2023-01-02T19:45:55.353Z,6.20
2023-01-02T19:48:22.155Z,5.40
2023-01-02T19:50:50.074Z,6.30
2023-01-02T19:53:17.099Z,6.00
2023-01-02T19:55:43.835Z,5.90
2023-01-02T19:58:11.237Z,6.00
2023-01-02T20:00:38.181Z,5.00
2023-01-02T20:03:05.122Z,5.90
2023-01-02T20:05:32.056Z,5.10
2023-01-02T20:08:00.176Z,5.60
2023-01-02T20:10:26.979Z,5.70
2023-01-02T20:12:53.919Z,4.70
2023-01-02T20:15:25.894Z,4.20
2023-01-02T20:17:53.177Z,4.90
2023-01-02T20:20:21.981Z,4.90
2023-01-02T20:22:51.575Z,5.90
2023-01-02T20:25:21.117Z,7.20
2023-01-02T20:27:48.364Z,6.20
2023-01-02T20:30:20.219Z,7.10
2023-01-02T20:32:50.917Z,8.40
2023-01-02T20:35:17.997Z,6.60
2023-01-02T20:37:44.703Z,8.20
2023-01-02T20:40:11.884Z,6.40
2023-01-02T20:42:40.322Z,6.00
2023-01-02T20:45:07.810Z,6.00
2023-01-02T20:47:36.546Z,5.40
2023-01-02T20:50:04.265Z,4.20
2023-01-02T20:52:31.668Z,4.50
2023-01-02T20:54:58.948Z,4.60
2023-01-02T20:57:27.079Z,4.00
2023-01-02T20:59:53.994Z,4.80
2023-01-02T21:02:21.347Z,4.50
2023-01-02T21:04:48.613Z,5.00
2023-01-02T21:07:15.509Z,4.60
2023-01-02T21:09:42.879Z,4.30
2023-01-02T21:12:29.873Z,4.50
2023-01-02T21:14:58.292Z,4.50
2023-01-02T21:17:25.291Z,4.50
2023-01-02T21:19:52.068Z,4.70
2023-01-02T21:22:19.344Z,3.40
2023-01-02T21:24:46.119Z,4.20
2023-01-02T21:27:13.527Z,3.80
2023-01-02T21:29:40.762Z,4.40
2023-01-02T21:32:08.077Z,4.50
2023-01-02T21:34:34.944Z,4.60
2023-01-02T21:37:02.138Z,4.70
2023-01-02T21:39:29.311Z,5.30
2023-01-02T21:42:14.402Z,5.10
2023-01-02T21:44:41.200Z,6.40
2023-01-02T21:47:08.089Z,6.00
2023-01-02T21:49:34.983Z,5.90
2023-01-02T21:52:02.093Z,5.60
2023-01-02T21:54:29.310Z,5.60
2023-01-02T21:56:56.149Z,4.70
2023-01-02T21:59:25.426Z,4.20
2023-01-02T22:01:53.032Z,4.80
2023-01-02T22:04:20.170Z,4.90
2023-01-02T22:07:21.261Z,5.00
2023-01-02T22:09:34.183Z,5.00
2023-01-02T22:12:01.388Z,5.10
2023-01-02T22:14:29.958Z,5.10
2023-01-02T22:16:57.725Z,4.80
2023-01-02T22:19:26.312Z,4.30
2023-01-02T22:21:53.125Z,4.80
2023-01-02T22:24:20.219Z,5.50
2023-01-02T22:26:47.247Z,4.70
2023-01-02T22:29:14.618Z,4.40
2023-01-02T22:31:41.835Z,3.70
2023-01-02T22:34:09.000Z,3.50
2023-01-02T22:36:36.335Z,4.50
2023-01-02T22:42:49.000Z,4.60
2023-01-02T22:45:03.758Z,4.10
2023-01-02T22:47:32.318Z,4.30
2023-01-02T22:49:59.055Z,4.10
2023-01-02T22:52:25.912Z,4.10
2023-01-02T22:54:52.654Z,3.90
2023-01-02T22:57:23.366Z,4.10
2023-01-02T22:59:50.409Z,3.90
2023-01-02T23:02:20.731Z,3.60
2023-01-02T23:04:50.928Z,4.00
2023-01-02T23:07:24.169Z,4.40
2023-01-02T23:09:51.486Z,5.10
2023-01-02T23:12:18.221Z,5.10
2023-01-02T23:14:47.603Z,4.30
2023-01-02T23:17:32.923Z,5.50
2023-01-02T23:19:59.809Z,5.00
2023-01-02T23:22:26.708Z,4.50
2023-01-02T23:24:53.914Z,5.20
2023-01-02T23:27:21.100Z,10.60
2023-01-02T23:29:48.191Z,4.70
2023-01-02T23:32:16.336Z,4.00
2023-01-02T23:34:44.100Z,3.90
2023-01-02T23:37:10.841Z,5.70
2023-01-02T23:39:37.666Z,3.80
2023-01-02T23:42:04.930Z,4.80
2023-01-02T23:44:31.691Z,4.10
2023-01-02T23:47:00.796Z,3.90
2023-01-02T23:49:29.811Z,3.70
2023-01-02T23:51:56.567Z,4.50
2023-01-02T23:54:23.449Z,3.80
2023-01-02T23:56:50.784Z,5.50
2023-01-02T23:59:20.867Z,6.20
